sensor_id;sensor_type;location;lat;lon;timestamp;P1;durP1;ratioP1;P2;durP2;ratioP2
55539;SDS011;41384;51.418;7.286;2023-03-16T00:00:40;5.38;;;2.70;;
55539;SDS011;41384;51.418;7.286;2023-03-16T00:03:07;6.15;;;3.00;;
55539;SDS011;41384;51.418;7.286;2023-03-16T00:05:32;3.65;;;2.58;;
55539;SDS011;41384;51.418;7.286;2023-03-16T00:07:57;5.00;;;2.83;;
55539;SDS011;41384;51.418;7.286;2023-03-16T00:10:23;3.53;;;2.55;;
55539;SDS011;41384;51.418;7.286;2023-03-16T00:12:51;6.05;;;3.03;;
55539;SDS011;41384;51.418;7.286;2023-03-16T00:15:17;5.88;;;3.00;;
55539;SDS011;41384;51.418;7.286;2023-03-16T00:17:43;4.13;;;2.97;;
55539;SDS011;41384;51.418;7.286;2023-03-16T00:20:12;3.90;;;2.78;;
55539;SDS011;41384;51.418;7.286;2023-03-16T00:22:37;4.90;;;2.55;;
55539;SDS011;41384;51.418;7.286;2023-03-16T00:25:03;7.47;;;2.97;;
55539;SDS011;41384;51.418;7.286;2023-03-16T00:27:28;3.45;;;2.25;;
55539;SDS011;41384;51.418;7.286;2023-03-16T00:29:53;6.30;;;2.70;;
55539;SDS011;41384;51.418;7.286;2023-03-16T00:32:25;8.00;;;3.00;;
55539;SDS011;41384;51.418;7.286;2023-03-16T00:34:53;4.38;;;2.80;;
55539;SDS011;41384;51.418;7.286;2023-03-16T00:37:20;3.97;;;2.65;;
55539;SDS011;41384;51.418;7.286;2023-03-16T00:39:47;4.10;;;2.60;;
55539;SDS011;41384;51.418;7.286;2023-03-16T00:42:14;6.70;;;2.60;;
55539;SDS011;41384;51.418;7.286;2023-03-16T00:44:40;8.82;;;3.10;;
55539;SDS011;41384;51.418;7.286;2023-03-16T00:47:06;6.20;;;2.70;;
55539;SDS011;41384;51.418;7.286;2023-03-16T00:49:33;3.78;;;2.22;;
55539;SDS011;41384;51.418;7.286;2023-03-16T00:52:03;5.45;;;2.72;;
55539;SDS011;41384;51.418;7.286;2023-03-16T00:54:30;7.15;;;3.15;;
55539;SDS011;41384;51.418;7.286;2023-03-16T00:56:59;5.05;;;2.78;;
55539;SDS011;41384;51.418;7.286;2023-03-16T00:59:25;5.38;;;2.90;;
55539;SDS011;41384;51.418;7.286;2023-03-16T01:01:53;4.10;;;2.33;;
55539;SDS011;41384;51.418;7.286;2023-03-16T01:04:19;4.18;;;2.83;;
55539;SDS011;41384;51.418;7.286;2023-03-16T01:06:46;4.15;;;2.90;;
55539;SDS011;41384;51.418;7.286;2023-03-16T01:09:11;3.65;;;2.63;;
55539;SDS011;41384;51.418;7.286;2023-03-16T01:11:38;3.80;;;2.47;;
55539;SDS011;41384;51.418;7.286;2023-03-16T01:14:04;3.33;;;2.92;;
55539;SDS011;41384;51.418;7.286;2023-03-16T01:16:30;4.75;;;2.83;;
55539;SDS011;41384;51.418;7.286;2023-03-16T01:18:57;3.38;;;2.50;;
55539;SDS011;41384;51.418;7.286;2023-03-16T01:21:23;5.05;;;3.00;;
55539;SDS011;41384;51.418;7.286;2023-03-16T01:23:48;4.57;;;3.25;;
55539;SDS011;41384;51.418;7.286;2023-03-16T01:26:14;4.68;;;2.58;;
55539;SDS011;41384;51.418;7.286;2023-03-16T01:28:41;4.10;;;2.97;;
55539;SDS011;41384;51.418;7.286;2023-03-16T01:31:09;3.78;;;2.75;;
55539;SDS011;41384;51.418;7.286;2023-03-16T01:33:36;3.80;;;2.40;;
55539;SDS011;41384;51.418;7.286;2023-03-16T01:36:04;6.10;;;2.70;;
55539;SDS011;41384;51.418;7.286;2023-03-16T01:38:31;5.20;;;2.85;;
55539;SDS011;41384;51.418;7.286;2023-03-16T01:40:57;5.65;;;2.50;;
55539;SDS011;41384;51.418;7.286;2023-03-16T01:43:24;4.80;;;2.70;;
55539;SDS011;41384;51.418;7.286;2023-03-16T01:53:50;3.95;;;2.33;;
55539;SDS011;41384;51.418;7.286;2023-03-16T01:56:21;4.57;;;2.22;;
55539;SDS011;41384;51.418;7.286;2023-03-16T01:58:55;6.13;;;2.50;;
55539;SDS011;41384;51.418;7.286;2023-03-16T02:01:25;3.25;;;2.20;;
55539;SDS011;41384;51.418;7.286;2023-03-16T02:03:53;3.03;;;2.25;;
55539;SDS011;41384;51.418;7.286;2023-03-16T02:06:21;3.95;;;2.55;;
55539;SDS011;41384;51.418;7.286;2023-03-16T02:08:49;3.42;;;2.35;;
55539;SDS011;41384;51.418;7.286;2023-03-16T02:11:19;5.40;;;2.50;;
55539;SDS011;41384;51.418;7.286;2023-03-16T02:13:46;5.28;;;2.88;;
55539;SDS011;41384;51.418;7.286;2023-03-16T02:16:13;6.82;;;2.88;;
55539;SDS011;41384;51.418;7.286;2023-03-16T02:18:43;5.80;;;2.20;;
55539;SDS011;41384;51.418;7.286;2023-03-16T02:21:18;5.03;;;2.30;;
55539;SDS011;41384;51.418;7.286;2023-03-16T02:23:50;4.68;;;2.25;;
55539;SDS011;41384;51.418;7.286;2023-03-16T02:26:19;4.10;;;2.55;;
55539;SDS011;41384;51.418;7.286;2023-03-16T02:31:39;5.88;;;2.20;;
55539;SDS011;41384;51.418;7.286;2023-03-16T02:34:05;5.55;;;2.42;;
55539;SDS011;41384;51.418;7.286;2023-03-16T02:36:31;3.70;;;2.30;;
55539;SDS011;41384;51.418;7.286;2023-03-16T02:38:58;4.40;;;2.35;;
55539;SDS011;41384;51.418;7.286;2023-03-16T02:41:23;3.22;;;2.28;;
55539;SDS011;41384;51.418;7.286;2023-03-16T02:43:57;6.28;;;2.70;;
55539;SDS011;41384;51.418;7.286;2023-03-16T02:46:28;4.32;;;2.03;;
55539;SDS011;41384;51.418;7.286;2023-03-16T02:51:28;3.42;;;1.95;;
55539;SDS011;41384;51.418;7.286;2023-03-16T02:53:54;5.22;;;2.38;;
55539;SDS011;41384;51.418;7.286;2023-03-16T02:56:20;2.92;;;1.92;;
55539;SDS011;41384;51.418;7.286;2023-03-16T02:58:46;3.13;;;2.10;;
55539;SDS011;41384;51.418;7.286;2023-03-16T03:01:11;3.20;;;2.13;;
55539;SDS011;41384;51.418;7.286;2023-03-16T03:03:37;3.88;;;1.98;;
55539;SDS011;41384;51.418;7.286;2023-03-16T03:06:02;5.50;;;2.58;;
55539;SDS011;41384;51.418;7.286;2023-03-16T03:08:27;2.58;;;2.10;;
55539;SDS011;41384;51.418;7.286;2023-03-16T03:10:52;5.22;;;2.05;;
55539;SDS011;41384;51.418;7.286;2023-03-16T03:13:18;4.57;;;2.20;;
55539;SDS011;41384;51.418;7.286;2023-03-16T03:15:43;5.18;;;2.40;;
55539;SDS011;41384;51.418;7.286;2023-03-16T03:18:09;2.67;;;2.10;;
55539;SDS011;41384;51.418;7.286;2023-03-16T03:20:35;5.10;;;2.35;;
55539;SDS011;41384;51.418;7.286;2023-03-16T03:23:00;5.53;;;2.05;;
55539;SDS011;41384;51.418;7.286;2023-03-16T03:25:27;2.97;;;2.10;;
55539;SDS011;41384;51.418;7.286;2023-03-16T03:27:52;3.95;;;2.38;;
55539;SDS011;41384;51.418;7.286;2023-03-16T03:30:21;3.47;;;2.33;;
55539;SDS011;41384;51.418;7.286;2023-03-16T03:32:48;3.85;;;2.28;;
55539;SDS011;41384;51.418;7.286;2023-03-16T03:35:14;3.60;;;1.95;;
55539;SDS011;41384;51.418;7.286;2023-03-16T03:37:40;5.63;;;2.00;;
55539;SDS011;41384;51.418;7.286;2023-03-16T03:40:07;6.90;;;2.65;;
55539;SDS011;41384;51.418;7.286;2023-03-16T03:42:34;4.32;;;2.10;;
55539;SDS011;41384;51.418;7.286;2023-03-16T03:45:00;3.42;;;2.15;;
55539;SDS011;41384;51.418;7.286;2023-03-16T03:47:25;4.03;;;2.00;;
55539;SDS011;41384;51.418;7.286;2023-03-16T03:49:50;2.78;;;2.30;;
55539;SDS011;41384;51.418;7.286;2023-03-16T03:52:16;4.28;;;2.03;;
55539;SDS011;41384;51.418;7.286;2023-03-16T03:54:41;4.93;;;2.05;;
55539;SDS011;41384;51.418;7.286;2023-03-16T03:57:06;5.65;;;2.47;;
55539;SDS011;41384;51.418;7.286;2023-03-16T03:59:32;3.05;;;1.73;;
55539;SDS011;41384;51.418;7.286;2023-03-16T04:01:58;4.07;;;2.22;;
55539;SDS011;41384;51.418;7.286;2023-03-16T04:04:24;3.85;;;2.08;;
55539;SDS011;41384;51.418;7.286;2023-03-16T04:06:49;3.65;;;1.83;;
55539;SDS011;41384;51.418;7.286;2023-03-16T04:09:15;2.10;;;1.90;;
55539;SDS011;41384;51.418;7.286;2023-03-16T04:11:40;3.63;;;2.05;;
55539;SDS011;41384;51.418;7.286;2023-03-16T04:14:06;4.05;;;1.90;;
55539;SDS011;41384;51.418;7.286;2023-03-16T04:16:31;2.55;;;1.70;;
55539;SDS011;41384;51.418;7.286;2023-03-16T04:18:57;3.85;;;2.10;;
55539;SDS011;41384;51.418;7.286;2023-03-16T04:21:23;4.43;;;1.98;;
55539;SDS011;41384;51.418;7.286;2023-03-16T04:23:48;4.00;;;1.90;;
55539;SDS011;41384;51.418;7.286;2023-03-16T04:26:18;5.28;;;2.00;;
55539;SDS011;41384;51.418;7.286;2023-03-16T04:28:44;3.55;;;2.03;;
55539;SDS011;41384;51.418;7.286;2023-03-16T04:31:09;3.13;;;1.70;;
55539;SDS011;41384;51.418;7.286;2023-03-16T04:33:35;1.98;;;1.75;;
55539;SDS011;41384;51.418;7.286;2023-03-16T04:36:02;3.20;;;2.45;;
55539;SDS011;41384;51.418;7.286;2023-03-16T04:38:28;3.85;;;1.80;;
55539;SDS011;41384;51.418;7.286;2023-03-16T04:40:57;3.10;;;2.20;;
55539;SDS011;41384;51.418;7.286;2023-03-16T04:43:23;2.75;;;2.05;;
55539;SDS011;41384;51.418;7.286;2023-03-16T04:45:48;4.63;;;2.13;;
55539;SDS011;41384;51.418;7.286;2023-03-16T04:48:14;4.97;;;2.35;;
55539;SDS011;41384;51.418;7.286;2023-03-16T04:50:39;3.20;;;2.28;;
55539;SDS011;41384;51.418;7.286;2023-03-16T04:53:05;2.53;;;2.10;;
55539;SDS011;41384;51.418;7.286;2023-03-16T04:55:30;4.65;;;2.50;;
55539;SDS011;41384;51.418;7.286;2023-03-16T04:57:55;5.72;;;2.15;;
55539;SDS011;41384;51.418;7.286;2023-03-16T05:00:21;5.25;;;2.28;;
55539;SDS011;41384;51.418;7.286;2023-03-16T05:02:48;5.75;;;2.47;;
55539;SDS011;41384;51.418;7.286;2023-03-16T05:05:14;5.45;;;2.80;;
55539;SDS011;41384;51.418;7.286;2023-03-16T05:07:40;3.00;;;2.13;;
55539;SDS011;41384;51.418;7.286;2023-03-16T05:10:09;5.30;;;3.03;;
55539;SDS011;41384;51.418;7.286;2023-03-16T05:12:35;5.60;;;2.47;;
55539;SDS011;41384;51.418;7.286;2023-03-16T05:15:00;2.50;;;2.17;;
55539;SDS011;41384;51.418;7.286;2023-03-16T05:17:26;6.57;;;2.58;;
55539;SDS011;41384;51.418;7.286;2023-03-16T05:19:51;5.25;;;2.85;;
55539;SDS011;41384;51.418;7.286;2023-03-16T05:22:16;6.30;;;3.10;;
55539;SDS011;41384;51.418;7.286;2023-03-16T05:24:42;4.75;;;2.67;;
55539;SDS011;41384;51.418;7.286;2023-03-16T05:27:07;3.90;;;2.78;;
55539;SDS011;41384;51.418;7.286;2023-03-16T05:29:32;5.53;;;3.00;;
55539;SDS011;41384;51.418;7.286;2023-03-16T05:31:58;5.18;;;3.10;;
55539;SDS011;41384;51.418;7.286;2023-03-16T05:34:24;6.38;;;2.85;;
55539;SDS011;41384;51.418;7.286;2023-03-16T05:36:50;4.53;;;3.10;;
55539;SDS011;41384;51.418;7.286;2023-03-16T05:39:15;5.00;;;3.38;;
55539;SDS011;41384;51.418;7.286;2023-03-16T05:41:40;5.85;;;3.10;;
55539;SDS011;41384;51.418;7.286;2023-03-16T05:44:06;6.00;;;3.15;;
55539;SDS011;41384;51.418;7.286;2023-03-16T05:46:32;4.25;;;3.00;;
55539;SDS011;41384;51.418;7.286;2023-03-16T05:48:58;4.18;;;3.03;;
55539;SDS011;41384;51.418;7.286;2023-03-16T05:51:23;6.88;;;3.85;;
55539;SDS011;41384;51.418;7.286;2023-03-16T05:53:50;4.78;;;3.53;;
55539;SDS011;41384;51.418;7.286;2023-03-16T05:56:16;5.78;;;3.40;;
55539;SDS011;41384;51.418;7.286;2023-03-16T05:58:42;4.97;;;3.35;;
55539;SDS011;41384;51.418;7.286;2023-03-16T06:01:07;4.85;;;3.15;;
55539;SDS011;41384;51.418;7.286;2023-03-16T06:03:33;5.95;;;3.35;;
55539;SDS011;41384;51.418;7.286;2023-03-16T06:05:58;5.90;;;3.55;;
55539;SDS011;41384;51.418;7.286;2023-03-16T06:08:23;7.45;;;3.90;;
55539;SDS011;41384;51.418;7.286;2023-03-16T06:10:49;5.25;;;3.15;;
55539;SDS011;41384;51.418;7.286;2023-03-16T06:13:14;6.68;;;3.30;;
55539;SDS011;41384;51.418;7.286;2023-03-16T06:15:39;3.92;;;2.83;;
55539;SDS011;41384;51.418;7.286;2023-03-16T06:18:05;5.20;;;3.53;;
55539;SDS011;41384;51.418;7.286;2023-03-16T06:20:30;4.82;;;3.17;;
55539;SDS011;41384;51.418;7.286;2023-03-16T06:22:55;5.72;;;3.03;;
55539;SDS011;41384;51.418;7.286;2023-03-16T06:25:21;5.72;;;3.08;;
55539;SDS011;41384;51.418;7.286;2023-03-16T06:27:46;7.30;;;3.25;;
55539;SDS011;41384;51.418;7.286;2023-03-16T06:30:13;8.07;;;3.00;;
55539;SDS011;41384;51.418;7.286;2023-03-16T06:32:39;5.35;;;3.22;;
55539;SDS011;41384;51.418;7.286;2023-03-16T06:35:09;5.18;;;3.70;;
55539;SDS011;41384;51.418;7.286;2023-03-16T06:37:35;4.97;;;3.28;;
55539;SDS011;41384;51.418;7.286;2023-03-16T06:40:00;5.50;;;3.03;;
55539;SDS011;41384;51.418;7.286;2023-03-16T06:42:25;6.28;;;3.40;;
55539;SDS011;41384;51.418;7.286;2023-03-16T06:44:51;5.60;;;2.92;;
55539;SDS011;41384;51.418;7.286;2023-03-16T06:47:16;6.35;;;3.15;;
55539;SDS011;41384;51.418;7.286;2023-03-16T06:49:42;4.65;;;3.08;;
55539;SDS011;41384;51.418;7.286;2023-03-16T06:52:07;8.60;;;3.15;;
55539;SDS011;41384;51.418;7.286;2023-03-16T06:54:34;4.00;;;3.15;;
55539;SDS011;41384;51.418;7.286;2023-03-16T06:57:01;5.80;;;3.30;;
55539;SDS011;41384;51.418;7.286;2023-03-16T06:59:27;4.13;;;2.92;;
55539;SDS011;41384;51.418;7.286;2023-03-16T07:01:52;5.55;;;3.25;;
55539;SDS011;41384;51.418;7.286;2023-03-16T07:04:17;5.50;;;3.33;;
55539;SDS011;41384;51.418;7.286;2023-03-16T07:06:43;4.22;;;2.65;;
55539;SDS011;41384;51.418;7.286;2023-03-16T07:09:08;5.07;;;2.83;;
55539;SDS011;41384;51.418;7.286;2023-03-16T07:11:33;5.85;;;2.97;;
55539;SDS011;41384;51.418;7.286;2023-03-16T07:13:59;4.20;;;2.90;;
55539;SDS011;41384;51.418;7.286;2023-03-16T07:16:25;4.90;;;3.03;;
55539;SDS011;41384;51.418;7.286;2023-03-16T07:18:51;5.93;;;3.08;;
55539;SDS011;41384;51.418;7.286;2023-03-16T07:21:17;4.60;;;2.78;;
55539;SDS011;41384;51.418;7.286;2023-03-16T07:23:43;7.70;;;3.10;;
55539;SDS011;41384;51.418;7.286;2023-03-16T07:26:08;3.75;;;2.85;;
55539;SDS011;41384;51.418;7.286;2023-03-16T07:28:35;3.65;;;2.88;;
55539;SDS011;41384;51.418;7.286;2023-03-16T07:31:01;3.90;;;2.70;;
55539;SDS011;41384;51.418;7.286;2023-03-16T07:33:26;4.90;;;3.20;;
55539;SDS011;41384;51.418;7.286;2023-03-16T07:35:52;4.53;;;2.90;;
55539;SDS011;41384;51.418;7.286;2023-03-16T07:38:17;4.57;;;2.70;;
55539;SDS011;41384;51.418;7.286;2023-03-16T07:40:42;5.85;;;2.88;;
55539;SDS011;41384;51.418;7.286;2023-03-16T07:43:07;4.65;;;2.72;;
55539;SDS011;41384;51.418;7.286;2023-03-16T07:45:33;4.05;;;2.92;;
55539;SDS011;41384;51.418;7.286;2023-03-16T07:47:58;7.10;;;2.78;;
55539;SDS011;41384;51.418;7.286;2023-03-16T07:50:24;5.20;;;2.95;;
55539;SDS011;41384;51.418;7.286;2023-03-16T07:52:49;6.13;;;2.95;;
55539;SDS011;41384;51.418;7.286;2023-03-16T07:55:14;5.78;;;2.95;;
55539;SDS011;41384;51.418;7.286;2023-03-16T07:57:40;4.63;;;2.80;;
55539;SDS011;41384;51.418;7.286;2023-03-16T08:00:06;4.85;;;2.72;;
55539;SDS011;41384;51.418;7.286;2023-03-16T08:02:33;7.10;;;2.90;;
55539;SDS011;41384;51.418;7.286;2023-03-16T08:04:58;3.40;;;2.90;;
55539;SDS011;41384;51.418;7.286;2023-03-16T08:07:23;5.25;;;2.75;;
55539;SDS011;41384;51.418;7.286;2023-03-16T08:09:49;4.85;;;2.97;;
55539;SDS011;41384;51.418;7.286;2023-03-16T08:12:15;5.65;;;3.20;;
55539;SDS011;41384;51.418;7.286;2023-03-16T08:14:40;4.20;;;2.90;;
55539;SDS011;41384;51.418;7.286;2023-03-16T08:17:06;4.95;;;2.90;;
55539;SDS011;41384;51.418;7.286;2023-03-16T08:19:31;3.22;;;2.70;;
55539;SDS011;41384;51.418;7.286;2023-03-16T08:21:57;4.50;;;2.75;;
55539;SDS011;41384;51.418;7.286;2023-03-16T08:24:25;5.05;;;2.97;;
55539;SDS011;41384;51.418;7.286;2023-03-16T08:26:51;4.65;;;3.10;;
55539;SDS011;41384;51.418;7.286;2023-03-16T08:29:16;6.00;;;3.50;;
55539;SDS011;41384;51.418;7.286;2023-03-16T08:31:42;5.43;;;3.35;;
55539;SDS011;41384;51.418;7.286;2023-03-16T08:34:08;5.88;;;3.50;;
55539;SDS011;41384;51.418;7.286;2023-03-16T08:36:34;4.97;;;3.38;;
55539;SDS011;41384;51.418;7.286;2023-03-16T08:39:00;6.03;;;3.47;;
55539;SDS011;41384;51.418;7.286;2023-03-16T08:41:29;4.15;;;3.10;;
55539;SDS011;41384;51.418;7.286;2023-03-16T08:43:56;7.38;;;3.38;;
55539;SDS011;41384;51.418;7.286;2023-03-16T08:46:22;5.65;;;3.00;;
55539;SDS011;41384;51.418;7.286;2023-03-16T08:48:48;5.47;;;3.58;;
55539;SDS011;41384;51.418;7.286;2023-03-16T08:51:14;5.38;;;3.47;;
55539;SDS011;41384;51.418;7.286;2023-03-16T08:53:39;6.68;;;3.40;;
55539;SDS011;41384;51.418;7.286;2023-03-16T08:56:06;5.38;;;3.03;;
55539;SDS011;41384;51.418;7.286;2023-03-16T08:58:33;5.07;;;3.22;;
55539;SDS011;41384;51.418;7.286;2023-03-16T09:01:00;5.28;;;3.10;;
55539;SDS011;41384;51.418;7.286;2023-03-16T09:03:26;3.90;;;2.80;;
55539;SDS011;41384;51.418;7.286;2023-03-16T09:05:52;4.93;;;3.40;;
55539;SDS011;41384;51.418;7.286;2023-03-16T09:08:18;5.72;;;3.20;;
55539;SDS011;41384;51.418;7.286;2023-03-16T09:10:44;4.50;;;3.08;;
55539;SDS011;41384;51.418;7.286;2023-03-16T09:13:10;5.55;;;3.17;;
55539;SDS011;41384;51.418;7.286;2023-03-16T09:15:36;6.45;;;3.17;;
55539;SDS011;41384;51.418;7.286;2023-03-16T09:18:02;4.22;;;3.22;;
55539;SDS011;41384;51.418;7.286;2023-03-16T09:20:29;4.93;;;3.33;;
55539;SDS011;41384;51.418;7.286;2023-03-16T09:22:55;4.28;;;3.10;;
55539;SDS011;41384;51.418;7.286;2023-03-16T09:25:21;6.50;;;3.28;;
55539;SDS011;41384;51.418;7.286;2023-03-16T09:27:49;5.32;;;3.28;;
55539;SDS011;41384;51.418;7.286;2023-03-16T09:30:14;5.43;;;3.10;;
55539;SDS011;41384;51.418;7.286;2023-03-16T09:32:40;5.32;;;3.15;;
55539;SDS011;41384;51.418;7.286;2023-03-16T09:35:06;5.20;;;3.45;;
55539;SDS011;41384;51.418;7.286;2023-03-16T09:37:32;4.55;;;3.28;;
55539;SDS011;41384;51.418;7.286;2023-03-16T09:39:58;4.68;;;2.90;;
55539;SDS011;41384;51.418;7.286;2023-03-16T09:42:37;5.47;;;3.72;;
55539;SDS011;41384;51.418;7.286;2023-03-16T09:47:59;6.90;;;3.50;;
55539;SDS011;41384;51.418;7.286;2023-03-16T09:50:30;5.82;;;3.55;;
55539;SDS011;41384;51.418;7.286;2023-03-16T09:53:12;4.85;;;3.15;;
55539;SDS011;41384;51.418;7.286;2023-03-16T09:55:50;4.22;;;3.28;;
55539;SDS011;41384;51.418;7.286;2023-03-16T09:58:20;6.35;;;3.60;;
55539;SDS011;41384;51.418;7.286;2023-03-16T10:01:04;6.60;;;3.55;;
55539;SDS011;41384;51.418;7.286;2023-03-16T10:03:47;5.75;;;3.30;;
55539;SDS011;41384;51.418;7.286;2023-03-16T10:06:34;5.95;;;3.38;;
55539;SDS011;41384;51.418;7.286;2023-03-16T10:11:51;6.65;;;3.20;;
55539;SDS011;41384;51.418;7.286;2023-03-16T10:16:50;5.68;;;3.22;;
55539;SDS011;41384;51.418;7.286;2023-03-16T10:19:24;5.90;;;3.08;;
55539;SDS011;41384;51.418;7.286;2023-03-16T10:21:55;5.50;;;2.90;;
55539;SDS011;41384;51.418;7.286;2023-03-16T10:24:39;4.82;;;3.00;;
55539;SDS011;41384;51.418;7.286;2023-03-16T10:27:08;4.57;;;2.70;;
55539;SDS011;41384;51.418;7.286;2023-03-16T10:29:42;4.57;;;3.00;;
55539;SDS011;41384;51.418;7.286;2023-03-16T10:32:12;5.05;;;3.30;;
55539;SDS011;41384;51.418;7.286;2023-03-16T10:34:40;6.70;;;3.17;;
55539;SDS011;41384;51.418;7.286;2023-03-16T10:37:33;5.13;;;3.33;;
55539;SDS011;41384;51.418;7.286;2023-03-16T10:39:59;4.38;;;3.05;;
55539;SDS011;41384;51.418;7.286;2023-03-16T10:42:25;4.25;;;2.65;;
55539;SDS011;41384;51.418;7.286;2023-03-16T10:45:00;4.82;;;3.03;;
55539;SDS011;41384;51.418;7.286;2023-03-16T10:47:30;4.68;;;2.63;;
55539;SDS011;41384;51.418;7.286;2023-03-16T10:49:56;4.15;;;2.65;;
55539;SDS011;41384;51.418;7.286;2023-03-16T10:57:35;4.32;;;2.65;;
55539;SDS011;41384;51.418;7.286;2023-03-16T11:00:15;4.57;;;2.65;;
55539;SDS011;41384;51.418;7.286;2023-03-16T11:02:45;3.58;;;2.53;;
55539;SDS011;41384;51.418;7.286;2023-03-16T11:07:47;4.57;;;2.17;;
55539;SDS011;41384;51.418;7.286;2023-03-16T11:10:33;5.13;;;2.80;;
55539;SDS011;41384;51.418;7.286;2023-03-16T11:13:07;3.63;;;2.47;;
55539;SDS011;41384;51.418;7.286;2023-03-16T11:20:57;4.40;;;2.58;;
55539;SDS011;41384;51.418;7.286;2023-03-16T11:23:29;8.15;;;2.28;;
55539;SDS011;41384;51.418;7.286;2023-03-16T11:25:57;4.72;;;2.63;;
55539;SDS011;41384;51.418;7.286;2023-03-16T11:28:31;2.97;;;2.30;;
55539;SDS011;41384;51.418;7.286;2023-03-16T11:33:28;2.97;;;2.20;;
55539;SDS011;41384;51.418;7.286;2023-03-16T11:41:20;3.17;;;1.85;;
55539;SDS011;41384;51.418;7.286;2023-03-16T11:43:59;4.55;;;1.92;;
55539;SDS011;41384;51.418;7.286;2023-03-16T11:47:19;3.20;;;1.90;;
55539;SDS011;41384;51.418;7.286;2023-03-16T11:49:45;4.30;;;1.70;;
55539;SDS011;41384;51.418;7.286;2023-03-16T11:57:59;2.50;;;1.73;;
55539;SDS011;41384;51.418;7.286;2023-03-16T12:00:59;4.35;;;2.00;;
55539;SDS011;41384;51.418;7.286;2023-03-16T12:03:41;4.40;;;1.60;;
55539;SDS011;41384;51.418;7.286;2023-03-16T12:11:36;3.03;;;1.73;;
55539;SDS011;41384;51.418;7.286;2023-03-16T12:16:46;5.30;;;1.60;;
55539;SDS011;41384;51.418;7.286;2023-03-16T12:22:01;3.20;;;1.40;;
55539;SDS011;41384;51.418;7.286;2023-03-16T12:24:39;3.72;;;1.50;;
55539;SDS011;41384;51.418;7.286;2023-03-16T12:27:09;3.95;;;1.50;;
55539;SDS011;41384;51.418;7.286;2023-03-16T12:29:43;3.90;;;1.50;;
55539;SDS011;41384;51.418;7.286;2023-03-16T12:32:24;2.80;;;1.40;;
55539;SDS011;41384;51.418;7.286;2023-03-16T12:35:17;2.95;;;1.10;;
55539;SDS011;41384;51.418;7.286;2023-03-16T12:37:56;2.60;;;1.58;;
55539;SDS011;41384;51.418;7.286;2023-03-16T12:40:33;1.98;;;1.50;;
55539;SDS011;41384;51.418;7.286;2023-03-16T12:43:10;2.75;;;1.60;;
55539;SDS011;41384;51.418;7.286;2023-03-16T12:48:56;2.45;;;1.50;;
55539;SDS011;41384;51.418;7.286;2023-03-16T12:51:17;2.53;;;1.55;;
55539;SDS011;41384;51.418;7.286;2023-03-16T12:53:44;2.55;;;1.40;;
55539;SDS011;41384;51.418;7.286;2023-03-16T12:56:18;2.47;;;1.33;;
55539;SDS011;41384;51.418;7.286;2023-03-16T12:58:57;3.78;;;1.23;;
55539;SDS011;41384;51.418;7.286;2023-03-16T13:01:28;1.38;;;1.10;;
55539;SDS011;41384;51.418;7.286;2023-03-16T13:04:14;3.00;;;1.50;;
55539;SDS011;41384;51.418;7.286;2023-03-16T13:06:47;2.00;;;1.50;;
55539;SDS011;41384;51.418;7.286;2023-03-16T13:09:19;2.45;;;1.60;;
55539;SDS011;41384;51.418;7.286;2023-03-16T13:11:49;3.08;;;1.27;;
55539;SDS011;41384;51.418;7.286;2023-03-16T13:14:15;4.22;;;1.70;;
55539;SDS011;41384;51.418;7.286;2023-03-16T13:17:01;2.33;;;1.50;;
55539;SDS011;41384;51.418;7.286;2023-03-16T13:19:30;3.92;;;1.40;;
55539;SDS011;41384;51.418;7.286;2023-03-16T13:22:02;3.70;;;1.30;;
55539;SDS011;41384;51.418;7.286;2023-03-16T13:27:22;2.72;;;1.40;;
55539;SDS011;41384;51.418;7.286;2023-03-16T13:29:53;2.58;;;1.55;;
55539;SDS011;41384;51.418;7.286;2023-03-16T13:32:23;1.85;;;1.23;;
55539;SDS011;41384;51.418;7.286;2023-03-16T13:34:52;3.90;;;1.60;;
55539;SDS011;41384;51.418;7.286;2023-03-16T13:37:22;2.28;;;1.30;;
55539;SDS011;41384;51.418;7.286;2023-03-16T13:39:52;2.53;;;1.60;;
55539;SDS011;41384;51.418;7.286;2023-03-16T13:42:20;3.65;;;1.50;;
55539;SDS011;41384;51.418;7.286;2023-03-16T13:44:47;2.92;;;1.75;;
55539;SDS011;41384;51.418;7.286;2023-03-16T13:47:16;6.65;;;1.90;;
55539;SDS011;41384;51.418;7.286;2023-03-16T13:49:43;4.10;;;1.42;;
55539;SDS011;41384;51.418;7.286;2023-03-16T13:54:48;2.83;;;1.35;;
55539;SDS011;41384;51.418;7.286;2023-03-16T13:57:15;2.63;;;1.50;;
55539;SDS011;41384;51.418;7.286;2023-03-16T13:59:44;5.07;;;1.70;;
55539;SDS011;41384;51.418;7.286;2023-03-16T14:02:15;3.20;;;1.55;;
55539;SDS011;41384;51.418;7.286;2023-03-16T14:04:42;3.80;;;1.60;;
55539;SDS011;41384;51.418;7.286;2023-03-16T14:07:14;3.53;;;1.85;;
55539;SDS011;41384;51.418;7.286;2023-03-16T14:09:41;4.22;;;2.08;;
55539;SDS011;41384;51.418;7.286;2023-03-16T14:12:12;4.25;;;1.80;;
55539;SDS011;41384;51.418;7.286;2023-03-16T14:14:39;2.53;;;1.60;;
55539;SDS011;41384;51.418;7.286;2023-03-16T14:17:11;5.07;;;2.00;;
55539;SDS011;41384;51.418;7.286;2023-03-16T14:19:46;4.38;;;1.50;;
55539;SDS011;41384;51.418;7.286;2023-03-16T14:22:18;2.45;;;1.38;;
55539;SDS011;41384;51.418;7.286;2023-03-16T14:24:51;2.80;;;1.60;;
55539;SDS011;41384;51.418;7.286;2023-03-16T14:32:38;3.65;;;1.55;;
55539;SDS011;41384;51.418;7.286;2023-03-16T14:35:14;3.47;;;1.63;;
55539;SDS011;41384;51.418;7.286;2023-03-16T14:37:41;2.25;;;1.45;;
55539;SDS011;41384;51.418;7.286;2023-03-16T14:40:19;1.98;;;1.50;;
55539;SDS011;41384;51.418;7.286;2023-03-16T14:42:45;2.55;;;1.80;;
55539;SDS011;41384;51.418;7.286;2023-03-16T14:45:11;2.15;;;1.23;;
55539;SDS011;41384;51.418;7.286;2023-03-16T14:47:40;2.03;;;1.23;;
55539;SDS011;41384;51.418;7.286;2023-03-16T14:50:07;5.53;;;1.60;;
55539;SDS011;41384;51.418;7.286;2023-03-16T14:52:38;4.13;;;1.73;;
55539;SDS011;41384;51.418;7.286;2023-03-16T14:55:09;2.28;;;1.38;;
55539;SDS011;41384;51.418;7.286;2023-03-16T14:57:38;4.05;;;1.60;;
55539;SDS011;41384;51.418;7.286;2023-03-16T15:00:05;2.85;;;1.20;;
55539;SDS011;41384;51.418;7.286;2023-03-16T15:02:33;1.65;;;1.15;;
55539;SDS011;41384;51.418;7.286;2023-03-16T15:04:59;2.67;;;1.33;;
55539;SDS011;41384;51.418;7.286;2023-03-16T15:07:30;2.55;;;1.20;;
55539;SDS011;41384;51.418;7.286;2023-03-16T15:10:40;1.50;;;1.13;;
55539;SDS011;41384;51.418;7.286;2023-03-16T15:12:49;4.40;;;1.20;;
55539;SDS011;41384;51.418;7.286;2023-03-16T15:15:19;4.00;;;1.70;;
55539;SDS011;41384;51.418;7.286;2023-03-16T15:17:48;1.85;;;1.20;;
55539;SDS011;41384;51.418;7.286;2023-03-16T15:20:16;2.13;;;1.13;;
55539;SDS011;41384;51.418;7.286;2023-03-16T15:22:47;2.72;;;1.35;;
55539;SDS011;41384;51.418;7.286;2023-03-16T15:28:01;4.45;;;1.25;;
55539;SDS011;41384;51.418;7.286;2023-03-16T15:30:34;2.40;;;1.27;;
55539;SDS011;41384;51.418;7.286;2023-03-16T15:32:59;2.90;;;1.40;;
55539;SDS011;41384;51.418;7.286;2023-03-16T15:35:24;3.80;;;1.30;;
55539;SDS011;41384;51.418;7.286;2023-03-16T15:37:50;3.60;;;1.67;;
55539;SDS011;41384;51.418;7.286;2023-03-16T15:40:23;2.28;;;1.17;;
55539;SDS011;41384;51.418;7.286;2023-03-16T15:42:51;18.13;;;9.90;;
55539;SDS011;41384;51.418;7.286;2023-03-16T15:45:18;8.88;;;5.38;;
55539;SDS011;41384;51.418;7.286;2023-03-16T15:47:48;7.05;;;3.00;;
55539;SDS011;41384;51.418;7.286;2023-03-16T15:50:16;2.60;;;1.40;;
55539;SDS011;41384;51.418;7.286;2023-03-16T15:52:45;11.55;;;5.10;;
55539;SDS011;41384;51.418;7.286;2023-03-16T15:55:18;2.80;;;1.50;;
55539;SDS011;41384;51.418;7.286;2023-03-16T15:57:46;3.40;;;1.27;;
55539;SDS011;41384;51.418;7.286;2023-03-16T16:00:23;3.33;;;1.50;;
55539;SDS011;41384;51.418;7.286;2023-03-16T16:02:52;3.67;;;1.50;;
55539;SDS011;41384;51.418;7.286;2023-03-16T16:05:18;2.97;;;1.35;;
55539;SDS011;41384;51.418;7.286;2023-03-16T16:07:43;3.97;;;1.40;;
55539;SDS011;41384;51.418;7.286;2023-03-16T16:10:11;4.35;;;1.60;;